sensor_id;sensor_type;location;lat;lon;timestamp;temperature;humidity
10492;DHT22;5293;51.464;-2.566;2023-02-28T00:01:24;4.70;99.90
10492;DHT22;5293;51.464;-2.566;2023-02-28T00:03:50;4.80;99.90
10492;DHT22;5293;51.464;-2.566;2023-02-28T00:06:16;4.70;99.90
10492;DHT22;5293;51.464;-2.566;2023-02-28T00:08:42;4.70;99.90
10492;DHT22;5293;51.464;-2.566;2023-02-28T00:11:11;4.60;99.90
10492;DHT22;5293;51.464;-2.566;2023-02-28T00:13:43;4.60;99.90
10492;DHT22;5293;51.464;-2.566;2023-02-28T00:16:16;4.50;99.90
10492;DHT22;5293;51.464;-2.566;2023-02-28T00:18:42;4.50;99.90
10492;DHT22;5293;51.464;-2.566;2023-02-28T00:21:08;4.40;99.90
10492;DHT22;5293;51.464;-2.566;2023-02-28T00:23:35;4.30;99.90
10492;DHT22;5293;51.464;-2.566;2023-02-28T00:26:01;4.30;99.90
10492;DHT22;5293;51.464;-2.566;2023-02-28T00:28:27;4.30;99.90
10492;DHT22;5293;51.464;-2.566;2023-02-28T00:30:52;4.30;99.90
10492;DHT22;5293;51.464;-2.566;2023-02-28T00:33:18;4.30;99.90
10492;DHT22;5293;51.464;-2.566;2023-02-28T00:35:44;4.30;99.90
10492;DHT22;5293;51.464;-2.566;2023-02-28T00:38:12;4.30;99.90
10492;DHT22;5293;51.464;-2.566;2023-02-28T00:40:38;4.40;99.90
10492;DHT22;5293;51.464;-2.566;2023-02-28T00:43:04;4.40;99.90
10492;DHT22;5293;51.464;-2.566;2023-02-28T00:45:30;4.30;99.90
10492;DHT22;5293;51.464;-2.566;2023-02-28T00:47:55;4.30;99.90
10492;DHT22;5293;51.464;-2.566;2023-02-28T00:50:21;4.30;99.90
10492;DHT22;5293;51.464;-2.566;2023-02-28T00:52:47;4.20;99.90
10492;DHT22;5293;51.464;-2.566;2023-02-28T00:55:13;4.20;99.90
10492;DHT22;5293;51.464;-2.566;2023-02-28T00:57:39;4.00;99.90
10492;DHT22;5293;51.464;-2.566;2023-02-28T01:00:05;4.00;99.90
10492;DHT22;5293;51.464;-2.566;2023-02-28T01:02:31;3.90;99.90
10492;DHT22;5293;51.464;-2.566;2023-02-28T01:04:57;3.90;99.90
10492;DHT22;5293;51.464;-2.566;2023-02-28T01:07:23;4.00;99.90
10492;DHT22;5293;51.464;-2.566;2023-02-28T01:09:49;4.10;99.90
10492;DHT22;5293;51.464;-2.566;2023-02-28T01:12:15;4.10;99.90
10492;DHT22;5293;51.464;-2.566;2023-02-28T01:14:40;4.10;99.90
10492;DHT22;5293;51.464;-2.566;2023-02-28T01:17:06;4.10;99.90
10492;DHT22;5293;51.464;-2.566;2023-02-28T01:19:32;4.20;99.90
10492;DHT22;5293;51.464;-2.566;2023-02-28T01:22:01;4.20;99.90
10492;DHT22;5293;51.464;-2.566;2023-02-28T01:24:28;4.20;99.90
10492;DHT22;5293;51.464;-2.566;2023-02-28T01:26:53;4.20;99.90
10492;DHT22;5293;51.464;-2.566;2023-02-28T01:29:19;4.20;99.90
10492;DHT22;5293;51.464;-2.566;2023-02-28T01:31:44;4.10;99.90
10492;DHT22;5293;51.464;-2.566;2023-02-28T01:34:10;4.10;99.90
10492;DHT22;5293;51.464;-2.566;2023-02-28T01:36:36;4.10;99.90
10492;DHT22;5293;51.464;-2.566;2023-02-28T01:39:02;4.10;99.90
10492;DHT22;5293;51.464;-2.566;2023-02-28T01:41:30;4.00;99.90
10492;DHT22;5293;51.464;-2.566;2023-02-28T01:44:53;4.00;99.90
10492;DHT22;5293;51.464;-2.566;2023-02-28T01:46:52;3.90;99.90
10492;DHT22;5293;51.464;-2.566;2023-02-28T01:49:18;3.80;99.90
10492;DHT22;5293;51.464;-2.566;2023-02-28T01:51:45;3.90;99.90
10492;DHT22;5293;51.464;-2.566;2023-02-28T01:54:30;3.80;99.90
10492;DHT22;5293;51.464;-2.566;2023-02-28T01:57:07;3.80;99.90
10492;DHT22;5293;51.464;-2.566;2023-02-28T01:59:42;3.80;99.90
10492;DHT22;5293;51.464;-2.566;2023-02-28T02:02:13;3.80;99.90
10492;DHT22;5293;51.464;-2.566;2023-02-28T02:04:45;3.90;99.90
10492;DHT22;5293;51.464;-2.566;2023-02-28T02:07:14;3.90;99.90
10492;DHT22;5293;51.464;-2.566;2023-02-28T02:09:39;3.90;99.90
10492;DHT22;5293;51.464;-2.566;2023-02-28T02:12:25;3.90;99.90
10492;DHT22;5293;51.464;-2.566;2023-02-28T02:15:19;3.90;99.90
10492;DHT22;5293;51.464;-2.566;2023-02-28T02:17:52;3.90;99.90
10492;DHT22;5293;51.464;-2.566;2023-02-28T02:37:58;4.10;99.90
10492;DHT22;5293;51.464;-2.566;2023-02-28T02:40:21;4.00;99.90
10492;DHT22;5293;51.464;-2.566;2023-02-28T02:43:04;4.00;99.90
10492;DHT22;5293;51.464;-2.566;2023-02-28T02:48:39;3.90;99.90
10492;DHT22;5293;51.464;-2.566;2023-02-28T02:51:11;3.90;99.90
10492;DHT22;5293;51.464;-2.566;2023-02-28T02:53:45;3.80;99.90
10492;DHT22;5293;51.464;-2.566;2023-02-28T02:56:16;3.80;99.90
10492;DHT22;5293;51.464;-2.566;2023-02-28T02:58:44;3.80;99.90
10492;DHT22;5293;51.464;-2.566;2023-02-28T03:01:16;3.80;99.90
10492;DHT22;5293;51.464;-2.566;2023-02-28T03:04:00;3.80;99.90
10492;DHT22;5293;51.464;-2.566;2023-02-28T03:06:26;3.70;99.90
10492;DHT22;5293;51.464;-2.566;2023-02-28T03:08:52;3.60;99.90
10492;DHT22;5293;51.464;-2.566;2023-02-28T03:11:18;3.70;99.90
10492;DHT22;5293;51.464;-2.566;2023-02-28T03:24:55;3.90;99.90
10492;DHT22;5293;51.464;-2.566;2023-02-28T03:27:41;3.90;99.90
10492;DHT22;5293;51.464;-2.566;2023-02-28T03:30:29;3.90;99.90
10492;DHT22;5293;51.464;-2.566;2023-02-28T03:35:59;4.00;99.90
10492;DHT22;5293;51.464;-2.566;2023-02-28T03:39:03;4.00;99.90
10492;DHT22;5293;51.464;-2.566;2023-02-28T03:41:52;3.90;99.90
10492;DHT22;5293;51.464;-2.566;2023-02-28T03:44:33;4.00;99.90
10492;DHT22;5293;51.464;-2.566;2023-02-28T03:47:13;4.00;99.90
10492;DHT22;5293;51.464;-2.566;2023-02-28T03:49:48;4.00;99.90
10492;DHT22;5293;51.464;-2.566;2023-02-28T03:52:18;4.00;99.90
10492;DHT22;5293;51.464;-2.566;2023-02-28T03:54:48;4.10;99.90
10492;DHT22;5293;51.464;-2.566;2023-02-28T03:57:27;4.10;99.90
10492;DHT22;5293;51.464;-2.566;2023-02-28T04:00:06;4.10;99.90
10492;DHT22;5293;51.464;-2.566;2023-02-28T04:02:33;4.20;99.90
10492;DHT22;5293;51.464;-2.566;2023-02-28T04:05:00;4.30;99.90
10492;DHT22;5293;51.464;-2.566;2023-02-28T04:07:29;4.30;99.90
10492;DHT22;5293;51.464;-2.566;2023-02-28T04:09:55;4.30;99.90
10492;DHT22;5293;51.464;-2.566;2023-02-28T04:12:21;4.30;99.90
10492;DHT22;5293;51.464;-2.566;2023-02-28T04:14:48;4.30;99.90
10492;DHT22;5293;51.464;-2.566;2023-02-28T04:17:15;4.40;99.90
10492;DHT22;5293;51.464;-2.566;2023-02-28T04:19:40;4.50;99.90
10492;DHT22;5293;51.464;-2.566;2023-02-28T04:22:08;4.50;99.90
10492;DHT22;5293;51.464;-2.566;2023-02-28T04:24:34;4.60;99.90
10492;DHT22;5293;51.464;-2.566;2023-02-28T04:26:59;4.60;99.90
10492;DHT22;5293;51.464;-2.566;2023-02-28T04:29:29;4.70;99.90
10492;DHT22;5293;51.464;-2.566;2023-02-28T04:31:57;4.70;99.90
10492;DHT22;5293;51.464;-2.566;2023-02-28T04:34:27;4.70;99.90
10492;DHT22;5293;51.464;-2.566;2023-02-28T04:36:53;4.80;99.90
10492;DHT22;5293;51.464;-2.566;2023-02-28T04:39:20;4.80;99.90
10492;DHT22;5293;51.464;-2.566;2023-02-28T04:41:46;4.80;99.90
10492;DHT22;5293;51.464;-2.566;2023-02-28T04:44:13;4.80;99.90
10492;DHT22;5293;51.464;-2.566;2023-02-28T04:46:38;4.90;99.90
10492;DHT22;5293;51.464;-2.566;2023-02-28T04:49:04;4.90;99.90
10492;DHT22;5293;51.464;-2.566;2023-02-28T04:51:30;4.90;99.90
10492;DHT22;5293;51.464;-2.566;2023-02-28T04:53:56;4.90;99.90
10492;DHT22;5293;51.464;-2.566;2023-02-28T04:56:22;5.00;99.90
10492;DHT22;5293;51.464;-2.566;2023-02-28T04:58:47;4.90;99.90
10492;DHT22;5293;51.464;-2.566;2023-02-28T05:01:21;5.00;99.90
10492;DHT22;5293;51.464;-2.566;2023-02-28T05:03:47;5.00;99.90
10492;DHT22;5293;51.464;-2.566;2023-02-28T05:06:13;4.90;99.90
10492;DHT22;5293;51.464;-2.566;2023-02-28T05:08:39;5.00;99.90
10492;DHT22;5293;51.464;-2.566;2023-02-28T05:11:09;5.00;99.90
10492;DHT22;5293;51.464;-2.566;2023-02-28T05:13:37;5.00;99.90
10492;DHT22;5293;51.464;-2.566;2023-02-28T05:16:03;5.00;99.90
10492;DHT22;5293;51.464;-2.566;2023-02-28T05:18:28;5.00;99.90
10492;DHT22;5293;51.464;-2.566;2023-02-28T05:20:54;5.10;99.90
10492;DHT22;5293;51.464;-2.566;2023-02-28T05:23:21;5.10;99.90
10492;DHT22;5293;51.464;-2.566;2023-02-28T05:25:47;5.00;99.90
10492;DHT22;5293;51.464;-2.566;2023-02-28T05:28:13;5.10;99.90
10492;DHT22;5293;51.464;-2.566;2023-02-28T05:30:39;5.20;99.90
10492;DHT22;5293;51.464;-2.566;2023-02-28T05:33:05;5.10;99.90
10492;DHT22;5293;51.464;-2.566;2023-02-28T05:35:31;5.20;99.90
10492;DHT22;5293;51.464;-2.566;2023-02-28T05:37:57;5.10;99.90
10492;DHT22;5293;51.464;-2.566;2023-02-28T05:40:22;5.20;99.90
10492;DHT22;5293;51.464;-2.566;2023-02-28T05:42:50;5.10;99.90
10492;DHT22;5293;51.464;-2.566;2023-02-28T05:45:16;5.20;99.90
10492;DHT22;5293;51.464;-2.566;2023-02-28T05:47:42;5.30;99.90
10492;DHT22;5293;51.464;-2.566;2023-02-28T05:50:08;5.20;99.90
10492;DHT22;5293;51.464;-2.566;2023-02-28T05:52:36;5.20;99.90
10492;DHT22;5293;51.464;-2.566;2023-02-28T05:55:02;5.20;99.90
10492;DHT22;5293;51.464;-2.566;2023-02-28T05:57:27;5.10;99.90
10492;DHT22;5293;51.464;-2.566;2023-02-28T05:59:53;5.10;99.90
10492;DHT22;5293;51.464;-2.566;2023-02-28T06:02:18;5.10;99.90
10492;DHT22;5293;51.464;-2.566;2023-02-28T06:04:44;5.00;99.90
10492;DHT22;5293;51.464;-2.566;2023-02-28T06:07:11;5.00;99.90
10492;DHT22;5293;51.464;-2.566;2023-02-28T06:09:37;5.00;99.90
10492;DHT22;5293;51.464;-2.566;2023-02-28T06:12:05;5.10;99.90
10492;DHT22;5293;51.464;-2.566;2023-02-28T06:14:33;5.10;99.90
10492;DHT22;5293;51.464;-2.566;2023-02-28T06:17:00;5.10;99.90
10492;DHT22;5293;51.464;-2.566;2023-02-28T06:19:26;5.00;99.90
10492;DHT22;5293;51.464;-2.566;2023-02-28T06:21:53;5.00;99.90
10492;DHT22;5293;51.464;-2.566;2023-02-28T06:24:23;5.00;99.90
10492;DHT22;5293;51.464;-2.566;2023-02-28T06:26:49;4.90;99.90
10492;DHT22;5293;51.464;-2.566;2023-02-28T06:29:15;4.80;99.90
10492;DHT22;5293;51.464;-2.566;2023-02-28T06:31:42;4.80;99.90
10492;DHT22;5293;51.464;-2.566;2023-02-28T06:34:09;4.80;99.90
10492;DHT22;5293;51.464;-2.566;2023-02-28T06:36:40;4.80;99.90
10492;DHT22;5293;51.464;-2.566;2023-02-28T06:39:07;4.80;99.90
10492;DHT22;5293;51.464;-2.566;2023-02-28T06:41:33;4.80;99.90
10492;DHT22;5293;51.464;-2.566;2023-02-28T06:44:11;4.80;99.90
10492;DHT22;5293;51.464;-2.566;2023-02-28T06:46:39;4.80;99.90
10492;DHT22;5293;51.464;-2.566;2023-02-28T06:49:06;4.80;99.90
10492;DHT22;5293;51.464;-2.566;2023-02-28T06:51:34;4.80;99.90
10492;DHT22;5293;51.464;-2.566;2023-02-28T06:54:00;4.70;99.90
10492;DHT22;5293;51.464;-2.566;2023-02-28T06:56:25;4.80;99.90
10492;DHT22;5293;51.464;-2.566;2023-02-28T06:58:51;4.80;99.90
10492;DHT22;5293;51.464;-2.566;2023-02-28T07:01:21;4.90;99.90
10492;DHT22;5293;51.464;-2.566;2023-02-28T07:03:51;4.90;99.90
10492;DHT22;5293;51.464;-2.566;2023-02-28T07:06:21;5.00;99.90
10492;DHT22;5293;51.464;-2.566;2023-02-28T07:08:48;5.00;99.90
10492;DHT22;5293;51.464;-2.566;2023-02-28T07:11:14;5.00;99.90
10492;DHT22;5293;51.464;-2.566;2023-02-28T07:13:40;5.00;99.90
10492;DHT22;5293;51.464;-2.566;2023-02-28T07:16:09;5.00;99.90
10492;DHT22;5293;51.464;-2.566;2023-02-28T07:18:36;5.10;99.90
10492;DHT22;5293;51.464;-2.566;2023-02-28T07:21:03;5.20;99.90
10492;DHT22;5293;51.464;-2.566;2023-02-28T07:23:29;5.20;99.90
10492;DHT22;5293;51.464;-2.566;2023-02-28T07:25:55;5.20;99.90
10492;DHT22;5293;51.464;-2.566;2023-02-28T07:28:21;5.20;99.90
10492;DHT22;5293;51.464;-2.566;2023-02-28T07:30:46;5.20;99.90
10492;DHT22;5293;51.464;-2.566;2023-02-28T07:33:13;5.20;99.90
10492;DHT22;5293;51.464;-2.566;2023-02-28T07:35:39;5.20;99.90
10492;DHT22;5293;51.464;-2.566;2023-02-28T07:38:04;5.30;99.90
10492;DHT22;5293;51.464;-2.566;2023-02-28T07:40:30;5.40;99.90
10492;DHT22;5293;51.464;-2.566;2023-02-28T07:42:56;5.40;99.90
10492;DHT22;5293;51.464;-2.566;2023-02-28T07:45:23;5.40;99.90
10492;DHT22;5293;51.464;-2.566;2023-02-28T07:47:49;5.40;99.90
10492;DHT22;5293;51.464;-2.566;2023-02-28T07:50:15;5.40;99.90
10492;DHT22;5293;51.464;-2.566;2023-02-28T07:52:42;5.40;99.90
10492;DHT22;5293;51.464;-2.566;2023-02-28T07:55:08;5.50;99.90
10492;DHT22;5293;51.464;-2.566;2023-02-28T07:57:35;5.50;99.90
10492;DHT22;5293;51.464;-2.566;2023-02-28T08:00:01;5.50;99.90
10492;DHT22;5293;51.464;-2.566;2023-02-28T08:02:28;5.60;99.90
10492;DHT22;5293;51.464;-2.566;2023-02-28T08:04:54;5.60;99.90
10492;DHT22;5293;51.464;-2.566;2023-02-28T08:07:19;5.60;99.90
10492;DHT22;5293;51.464;-2.566;2023-02-28T08:09:46;5.70;99.90
10492;DHT22;5293;51.464;-2.566;2023-02-28T08:12:12;5.70;99.90
10492;DHT22;5293;51.464;-2.566;2023-02-28T08:14:38;5.70;99.90
10492;DHT22;5293;51.464;-2.566;2023-02-28T08:17:05;5.80;99.90
10492;DHT22;5293;51.464;-2.566;2023-02-28T08:19:31;5.80;99.90
10492;DHT22;5293;51.464;-2.566;2023-02-28T08:21:57;5.80;99.90
10492;DHT22;5293;51.464;-2.566;2023-02-28T08:24:23;5.90;99.90
10492;DHT22;5293;51.464;-2.566;2023-02-28T08:26:49;5.90;99.90
10492;DHT22;5293;51.464;-2.566;2023-02-28T08:29:15;5.90;99.90
10492;DHT22;5293;51.464;-2.566;2023-02-28T08:31:41;5.90;99.90
10492;DHT22;5293;51.464;-2.566;2023-02-28T08:34:12;6.00;99.90
10492;DHT22;5293;51.464;-2.566;2023-02-28T08:36:38;6.10;99.90
10492;DHT22;5293;51.464;-2.566;2023-02-28T08:39:05;6.10;99.90
10492;DHT22;5293;51.464;-2.566;2023-02-28T08:41:32;6.20;99.90
10492;DHT22;5293;51.464;-2.566;2023-02-28T08:43:58;6.20;99.90
10492;DHT22;5293;51.464;-2.566;2023-02-28T08:46:24;6.40;99.90
10492;DHT22;5293;51.464;-2.566;2023-02-28T08:48:54;6.40;99.90
10492;DHT22;5293;51.464;-2.566;2023-02-28T08:51:20;6.60;99.90
10492;DHT22;5293;51.464;-2.566;2023-02-28T08:53:54;6.60;99.90
10492;DHT22;5293;51.464;-2.566;2023-02-28T08:56:21;6.60;99.90
10492;DHT22;5293;51.464;-2.566;2023-02-28T08:58:48;6.60;99.90
10492;DHT22;5293;51.464;-2.566;2023-02-28T09:01:16;6.60;99.90
10492;DHT22;5293;51.464;-2.566;2023-02-28T09:03:43;6.40;99.90
10492;DHT22;5293;51.464;-2.566;2023-02-28T09:06:10;6.40;99.90
10492;DHT22;5293;51.464;-2.566;2023-02-28T09:08:36;6.30;99.90
10492;DHT22;5293;51.464;-2.566;2023-02-28T09:11:02;6.30;99.90
10492;DHT22;5293;51.464;-2.566;2023-02-28T09:13:29;6.30;99.90
10492;DHT22;5293;51.464;-2.566;2023-02-28T09:15:58;6.40;99.90
10492;DHT22;5293;51.464;-2.566;2023-02-28T09:18:24;6.40;99.90
10492;DHT22;5293;51.464;-2.566;2023-02-28T09:20:50;6.50;99.90
10492;DHT22;5293;51.464;-2.566;2023-02-28T09:23:16;6.50;99.90
10492;DHT22;5293;51.464;-2.566;2023-02-28T09:25:53;6.50;99.90
10492;DHT22;5293;51.464;-2.566;2023-02-28T09:28:20;6.50;99.90
10492;DHT22;5293;51.464;-2.566;2023-02-28T09:30:47;6.50;99.90
10492;DHT22;5293;51.464;-2.566;2023-02-28T09:33:14;6.40;99.90
10492;DHT22;5293;51.464;-2.566;2023-02-28T09:35:40;6.50;99.90
10492;DHT22;5293;51.464;-2.566;2023-02-28T09:38:06;6.40;99.90
10492;DHT22;5293;51.464;-2.566;2023-02-28T09:40:36;6.40;99.90
10492;DHT22;5293;51.464;-2.566;2023-02-28T09:43:03;6.50;99.90
10492;DHT22;5293;51.464;-2.566;2023-02-28T09:45:33;6.60;99.90
10492;DHT22;5293;51.464;-2.566;2023-02-28T09:48:04;6.70;99.90
10492;DHT22;5293;51.464;-2.566;2023-02-28T09:50:47;6.60;99.90
10492;DHT22;5293;51.464;-2.566;2023-02-28T09:53:22;6.60;99.90
10492;DHT22;5293;51.464;-2.566;2023-02-28T09:55:56;6.60;99.90
10492;DHT22;5293;51.464;-2.566;2023-02-28T09:58:30;6.60;99.90
10492;DHT22;5293;51.464;-2.566;2023-02-28T10:01:08;6.70;99.90
10492;DHT22;5293;51.464;-2.566;2023-02-28T10:06:26;6.80;99.90
10492;DHT22;5293;51.464;-2.566;2023-02-28T10:09:08;6.90;99.90
10492;DHT22;5293;51.464;-2.566;2023-02-28T10:11:40;7.00;99.90
10492;DHT22;5293;51.464;-2.566;2023-02-28T10:14:14;7.00;99.90
10492;DHT22;5293;51.464;-2.566;2023-02-28T10:16:52;6.90;99.90
10492;DHT22;5293;51.464;-2.566;2023-02-28T10:25:18;7.00;99.90
10492;DHT22;5293;51.464;-2.566;2023-02-28T10:27:44;7.00;99.90
10492;DHT22;5293;51.464;-2.566;2023-02-28T10:30:11;7.20;99.90
10492;DHT22;5293;51.464;-2.566;2023-02-28T10:32:38;7.30;99.90
10492;DHT22;5293;51.464;-2.566;2023-02-28T10:35:21;7.20;99.90
10492;DHT22;5293;51.464;-2.566;2023-02-28T10:38:00;7.20;99.90
10492;DHT22;5293;51.464;-2.566;2023-02-28T10:40:35;7.20;99.90
10492;DHT22;5293;51.464;-2.566;2023-02-28T10:43:02;7.30;99.90
10492;DHT22;5293;51.464;-2.566;2023-02-28T10:45:30;7.40;99.90
10492;DHT22;5293;51.464;-2.566;2023-02-28T10:48:24;7.30;99.90
10492;DHT22;5293;51.464;-2.566;2023-02-28T10:56:05;7.70;99.90
10492;DHT22;5293;51.464;-2.566;2023-02-28T10:58:42;7.80;99.90
10492;DHT22;5293;51.464;-2.566;2023-02-28T11:01:39;7.80;99.90
10492;DHT22;5293;51.464;-2.566;2023-02-28T11:09:38;7.70;99.90
10492;DHT22;5293;51.464;-2.566;2023-02-28T11:12:08;7.80;99.90
10492;DHT22;5293;51.464;-2.566;2023-02-28T11:15:02;7.80;99.90
10492;DHT22;5293;51.464;-2.566;2023-02-28T11:17:31;7.80;99.90
10492;DHT22;5293;51.464;-2.566;2023-02-28T11:20:04;7.80;99.90
10492;DHT22;5293;51.464;-2.566;2023-02-28T11:22:35;7.80;99.90
10492;DHT22;5293;51.464;-2.566;2023-02-28T11:25:09;7.80;99.90
10492;DHT22;5293;51.464;-2.566;2023-02-28T11:27:56;7.90;99.90
10492;DHT22;5293;51.464;-2.566;2023-02-28T11:30:38;7.90;99.90
10492;DHT22;5293;51.464;-2.566;2023-02-28T11:33:28;7.90;99.90
10492;DHT22;5293;51.464;-2.566;2023-02-28T11:35:58;7.80;99.90
10492;DHT22;5293;51.464;-2.566;2023-02-28T11:38:26;7.80;99.90
10492;DHT22;5293;51.464;-2.566;2023-02-28T11:46:34;7.80;99.90
10492;DHT22;5293;51.464;-2.566;2023-02-28T12:01:03;8.20;99.90
10492;DHT22;5293;51.464;-2.566;2023-02-28T12:03:46;8.30;99.90
10492;DHT22;5293;51.464;-2.566;2023-02-28T12:06:28;8.40;99.90
10492;DHT22;5293;51.464;-2.566;2023-02-28T12:11:59;8.30;99.90
10492;DHT22;5293;51.464;-2.566;2023-02-28T12:14:47;8.40;99.90
10492;DHT22;5293;51.464;-2.566;2023-02-28T12:20:34;8.40;99.90
10492;DHT22;5293;51.464;-2.566;2023-02-28T12:28:25;8.30;99.90
10492;DHT22;5293;51.464;-2.566;2023-02-28T12:33:38;8.50;99.90
10492;DHT22;5293;51.464;-2.566;2023-02-28T12:36:11;8.30;99.90
10492;DHT22;5293;51.464;-2.566;2023-02-28T12:38:44;8.30;99.90
10492;DHT22;5293;51.464;-2.566;2023-02-28T12:41:26;8.20;99.90
10492;DHT22;5293;51.464;-2.566;2023-02-28T12:44:02;8.20;99.90
10492;DHT22;5293;51.464;-2.566;2023-02-28T12:46:42;8.30;99.90
10492;DHT22;5293;51.464;-2.566;2023-02-28T12:49:13;8.30;99.90
10492;DHT22;5293;51.464;-2.566;2023-02-28T12:51:41;8.30;99.90
10492;DHT22;5293;51.464;-2.566;2023-02-28T12:54:16;8.40;99.90
10492;DHT22;5293;51.464;-2.566;2023-02-28T12:59:53;8.30;99.90
10492;DHT22;5293;51.464;-2.566;2023-02-28T13:10:01;8.40;99.90
10492;DHT22;5293;51.464;-2.566;2023-02-28T13:12:28;8.60;99.90
10492;DHT22;5293;51.464;-2.566;2023-02-28T13:15:27;8.70;99.90
10492;DHT22;5293;51.464;-2.566;2023-02-28T13:17:58;8.90;99.90
10492;DHT22;5293;51.464;-2.566;2023-02-28T13:20:35;8.80;99.90
10492;DHT22;5293;51.464;-2.566;2023-02-28T13:23:01;8.90;99.90
10492;DHT22;5293;51.464;-2.566;2023-02-28T13:28:06;8.80;99.90
10492;DHT22;5293;51.464;-2.566;2023-02-28T13:33:30;8.80;99.90
10492;DHT22;5293;51.464;-2.566;2023-02-28T13:36:25;8.90;99.90
10492;DHT22;5293;51.464;-2.566;2023-02-28T13:38:56;9.00;99.90
10492;DHT22;5293;51.464;-2.566;2023-02-28T13:57:49;8.80;99.90
10492;DHT22;5293;51.464;-2.566;2023-02-28T14:05:24;8.60;99.90
10492;DHT22;5293;51.464;-2.566;2023-02-28T14:07:57;8.50;99.90
10492;DHT22;5293;51.464;-2.566;2023-02-28T14:10:48;8.40;99.90
10492;DHT22;5293;51.464;-2.566;2023-02-28T14:16:06;8.30;99.90
10492;DHT22;5293;51.464;-2.566;2023-02-28T14:18:34;8.20;99.90
10492;DHT22;5293;51.464;-2.566;2023-02-28T14:21:14;8.30;99.90
10492;DHT22;5293;51.464;-2.566;2023-02-28T14:34:54;8.60;99.90
10492;DHT22;5293;51.464;-2.566;2023-02-28T14:37:28;8.50;99.90
10492;DHT22;5293;51.464;-2.566;2023-02-28T14:39:55;8.60;99.90
10492;DHT22;5293;51.464;-2.566;2023-02-28T14:44:57;8.50;99.90
10492;DHT22;5293;51.464;-2.566;2023-02-28T14:47:27;8.60;99.90
10492;DHT22;5293;51.464;-2.566;2023-02-28T14:49:53;8.60;99.90
10492;DHT22;5293;51.464;-2.566;2023-02-28T14:52:22;8.70;99.90
10492;DHT22;5293;51.464;-2.566;2023-02-28T14:54:57;8.60;99.90
10492;DHT22;5293;51.464;-2.566;2023-02-28T14:57:27;8.50;99.90
10492;DHT22;5293;51.464;-2.566;2023-02-28T15:02:38;8.30;99.90
10492;DHT22;5293;51.464;-2.566;2023-02-28T15:07:42;8.60;99.90
10492;DHT22;5293;51.464;-2.566;2023-02-28T15:10:09;8.60;99.90
10492;DHT22;5293;51.464;-2.566;2023-02-28T15:12:37;8.60;99.90
10492;DHT22;5293;51.464;-2.566;2023-02-28T15:15:03;8.50;99.90
10492;DHT22;5293;51.464;-2.566;2023-02-28T15:17:29;8.40;99.90
10492;DHT22;5293;51.464;-2.566;2023-02-28T15:19:55;8.50;99.90
10492;DHT22;5293;51.464;-2.566;2023-02-28T15:22:35;8.50;99.90
10492;DHT22;5293;51.464;-2.566;2023-02-28T15:25:03;8.50;99.90
10492;DHT22;5293;51.464;-2.566;2023-02-28T15:27:32;8.30;99.90
10492;DHT22;5293;51.464;-2.566;2023-02-28T15:30:07;8.30;99.90
10492;DHT22;5293;51.464;-2.566;2023-02-28T15:32:37;8.30;99.90
10492;DHT22;5293;51.464;-2.566;2023-02-28T15:35:27;8.30;99.90
10492;DHT22;5293;51.464;-2.566;2023-02-28T15:37:55;8.20;99.90
10492;DHT22;5293;51.464;-2.566;2023-02-28T15:40:30;8.10;99.90
10492;DHT22;5293;51.464;-2.566;2023-02-28T15:43:18;8.10;99.90
10492;DHT22;5293;51.464;-2.566;2023-02-28T15:45:47;8.10;99.90
10492;DHT22;5293;51.464;-2.566;2023-02-28T15:48:37;8.30;99.90
10492;DHT22;5293;51.464;-2.566;2023-02-28T15:51:09;8.30;99.90
10492;DHT22;5293;51.464;-2.566;2023-02-28T15:54:01;8.50;99.90
10492;DHT22;5293;51.464;-2.566;2023-02-28T15:56:28;8.70;99.90
10492;DHT22;5293;51.464;-2.566;2023-02-28T15:59:00;8.80;99.90
10492;DHT22;5293;51.464;-2.566;2023-02-28T16:01:37;8.90;99.90
10492;DHT22;5293;51.464;-2.566;2023-02-28T16:04:15;8.90;99.90
10492;DHT22;5293;51.464;-2.566;2023-02-28T16:09:14;8.80;99.90
10492;DHT22;5293;51.464;-2.566;2023-02-28T16:11:48;8.70;99.90
10492;DHT22;5293;51.464;-2.566;2023-02-28T16:14:21;8.60;99.90
10492;DHT22;5293;51.464;-2.566;2023-02-28T16:16:51;8.50;99.90
10492;DHT22;5293;51.464;-2.566;2023-02-28T16:19:18;8.60;99.90
10492;DHT22;5293;51.464;-2.566;2023-02-28T16:21:44;8.60;99.90
10492;DHT22;5293;51.464;-2.566;2023-02-28T16:24:10;8.60;99.90
10492;DHT22;5293;51.464;-2.566;2023-02-28T16:26:36;8.60;99.90
10492;DHT22;5293;51.464;-2.566;2023-02-28T16:29:05;8.60;99.90
10492;DHT22;5293;51.464;-2.566;2023-02-28T16:31:35;8.60;99.90
10492;DHT22;5293;51.464;-2.566;2023-02-28T16:34:02;8.60;99.90
10492;DHT22;5293;51.464;-2.566;2023-02-28T16:36:29;8.60;99.90
10492;DHT22;5293;51.464;-2.566;2023-02-28T16:38:55;8.60;99.90
10492;DHT22;5293;51.464;-2.566;2023-02-28T16:41:23;8.60;99.90
10492;DHT22;5293;51.464;-2.566;2023-02-28T16:43:52;8.50;99.90
10492;DHT22;5293;51.464;-2.566;2023-02-28T16:46:19;8.50;99.90
10492;DHT22;5293;51.464;-2.566;2023-02-28T16:48:46;8.50;99.90
10492;DHT22;5293;51.464;-2.566;2023-02-28T16:51:17;8.40;99.90
10492;DHT22;5293;51.464;-2.566;2023-02-28T16:53:44;8.30;99.90
10492;DHT22;5293;51.464;-2.566;2023-02-28T16:56:21;8.40;99.90
10492;DHT22;5293;51.464;-2.566;2023-02-28T16:58:48;8.40;99.90
10492;DHT22;5293;51.464;-2.566;2023-02-28T17:01:15;8.40;99.90
10492;DHT22;5293;51.464;-2.566;2023-02-28T17:03:40;8.40;99.90
10492;DHT22;5293;51.464;-2.566;2023-02-28T17:06:15;8.40;99.90
10492;DHT22;5293;51.464;-2.566;2023-02-28T17:08:42;8.50;99.90
10492;DHT22;5293;51.464;-2.566;2023-02-28T17:11:08;8.50;99.90
10492;DHT22;5293;51.464;-2.566;2023-02-28T17:13:34;8.50;99.90
10492;DHT22;5293;51.464;-2.566;2023-02-28T17:16:00;8.50;99.90
10492;DHT22;5293;51.464;-2.566;2023-02-28T17:18:26;8.40;99.90
10492;DHT22;5293;51.464;-2.566;2023-02-28T17:20:54;8.40;99.90
10492;DHT22;5293;51.464;-2.566;2023-02-28T17:23:19;8.40;99.90
10492;DHT22;5293;51.464;-2.566;2023-02-28T17:25:45;8.30;99.90
10492;DHT22;5293;51.464;-2.566;2023-02-28T17:28:19;8.40;99.90
10492;DHT22;5293;51.464;-2.566;2023-02-28T17:30:46;8.30;99.90
10492;DHT22;5293;51.464;-2.566;2023-02-28T17:33:13;8.40;99.90
10492;DHT22;5293;51.464;-2.566;2023-02-28T17:35:38;8.30;99.90
10492;DHT22;5293;51.464;-2.566;2023-02-28T17:38:04;8.30;99.90
10492;DHT22;5293;51.464;-2.566;2023-02-28T17:40:29;8.30;99.90
10492;DHT22;5293;51.464;-2.566;2023-02-28T17:42:55;8.20;99.90
10492;DHT22;5293;51.464;-2.566;2023-02-28T17:45:22;8.20;99.90
10492;DHT22;5293;51.464;-2.566;2023-02-28T17:47:49;8.20;99.90
10492;DHT22;5293;51.464;-2.566;2023-02-28T17:50:20;8.20;99.90
10492;DHT22;5293;51.464;-2.566;2023-02-28T17:52:47;8.10;99.90
10492;DHT22;5293;51.464;-2.566;2023-02-28T17:55:13;8.10;99.90
10492;DHT22;5293;51.464;-2.566;2023-02-28T17:57:39;8.10;99.90
10492;DHT22;5293;51.464;-2.566;2023-02-28T18:00:07;8.10;99.90
10492;DHT22;5293;51.464;-2.566;2023-02-28T18:02:33;8.20;99.90
10492;DHT22;5293;51.464;-2.566;2023-02-28T18:04:59;8.20;99.90
10492;DHT22;5293;51.464;-2.566;2023-02-28T18:07:25;8.20;99.90
10492;DHT22;5293;51.464;-2.566;2023-02-28T18:09:50;8.10;99.90
10492;DHT22;5293;51.464;-2.566;2023-02-28T18:12:16;8.10;99.90
10492;DHT22;5293;51.464;-2.566;2023-02-28T18:14:42;8.10;99.90
10492;DHT22;5293;51.464;-2.566;2023-02-28T18:17:09;8.00;99.90
10492;DHT22;5293;51.464;-2.566;2023-02-28T18:19:37;8.00;99.90
10492;DHT22;5293;51.464;-2.566;2023-02-28T18:22:03;8.00;99.90
10492;DHT22;5293;51.464;-2.566;2023-02-28T18:24:31;8.00;99.90
10492;DHT22;5293;51.464;-2.566;2023-02-28T18:26:57;8.00;99.90
10492;DHT22;5293;51.464;-2.566;2023-02-28T18:29:26;8.00;99.90